Time;durP1;ratioP1;P1;durP2;ratioP2;P2;SDS_P1;SDS_P2;PMS_P1;PMS_P2;Temp;Humidity;BMP_temperature;BMP_pressure;BME280_temperature;BME280_humidity;BME280_pressure;Samples;Min_cycle;Max_cycle;Signal;HPM_P1;HPM_P2
2022/02/19 07:46:06;;;;;;;38.08;4.10;;;;;;;4.84;61.15;98208.84;4860896;29;20049;-84
2022/02/19 07:48:31;;;;;;;11.90;2.45;;;;;;;5.03;60.20;98197.97;4861550;29;20474;-82
2022/02/19 07:59:09;;;;;;;12.55;3.05;;;;;;;5.17;60.75;98235.59;4840304;29;20105;-80
2022/02/19 08:01:34;;;;;;;15.20;4.00;;;;;;;5.18;60.45;98216.81;4851738;29;20133;-79
2022/02/19 08:04:00;;;;;;;9.65;2.95;;;;;;;5.21;60.89;98215.56;4840548;29;20482;-80
2022/02/19 08:06:25;;;;;;;13.70;2.70;;;;;;;5.23;60.14;98224.06;4853871;29;20042;-79
2022/02/19 08:08:50;;;;;;;52.00;4.82;;;;;;;5.31;60.40;98236.97;4842715;29;20037;-79
2022/02/19 08:57:35;;;;;;;5.68;3.10;;;;;;;5.11;60.43;98340.44;4829558;29;20101;-73
2022/02/19 09:00:00;;;;;;;7.90;2.40;;;;;;;5.01;60.06;98334.91;4829127;29;20404;-73
2022/02/19 09:02:25;;;;;;;6.22;2.40;;;;;;;5.15;59.55;98349.56;4820551;29;20133;-73
2022/02/19 09:04:51;;;;;;;5.72;1.90;;;;;;;5.21;59.99;98355.78;4819019;29;20045;-73
2022/02/19 09:07:17;;;;;;;6.43;2.13;;;;;;;5.24;59.91;98368.56;4820960;29;20038;-73
2022/02/19 09:09:43;;;;;;;11.52;2.85;;;;;;;5.22;60.58;98367.97;4820333;29;20046;-73
2022/02/19 09:12:10;;;;;;;7.68;2.03;;;;;;;5.27;60.20;98376.03;4817853;29;20042;-73
2022/02/19 09:14:35;;;;;;;21.65;3.20;;;;;;;5.05;60.56;98353.75;4820790;29;20042;-74
2022/02/19 09:17:00;;;;;;;13.52;3.00;;;;;;;5.22;60.43;98392.56;4820138;29;20545;-74
2022/02/19 09:19:28;;;;;;;11.85;3.08;;;;;;;5.07;61.39;98354.34;4822301;29;20034;-74
2022/02/19 09:21:54;;;;;;;9.82;2.70;;;;;;;5.13;60.98;98361.41;4806098;29;20034;-74
2022/02/19 09:24:19;;;;;;;11.88;2.63;;;;;;;5.26;60.57;98377.88;4822143;29;20049;-74
2022/02/19 09:26:44;;;;;;;10.25;2.60;;;;;;;5.36;59.93;98379.16;4820582;29;20030;-74
2022/02/19 09:29:10;;;;;;;17.52;3.67;;;;;;;5.30;60.32;98384.34;4817980;29;20560;-74
2022/02/19 09:31:35;;;;;;;12.68;3.30;;;;;;;5.33;59.92;98391.00;4819306;29;20109;-74
2022/02/19 09:34:00;;;;;;;7.13;2.30;;;;;;;5.37;59.88;98391.38;4822111;29;20541;-74
2022/02/19 09:36:26;;;;;;;9.32;2.70;;;;;;;5.35;59.10;98385.50;4816061;29;20481;-74
2022/02/19 09:38:51;;;;;;;10.23;3.15;;;;;;;5.32;58.93;98386.75;4820195;29;21790;-74
2022/02/19 09:41:17;;;;;;;9.95;2.72;;;;;;;5.33;59.98;98394.44;4820407;29;20079;-74
2022/02/19 09:43:42;;;;;;;19.63;3.63;;;;;;;5.36;59.35;98393.19;4822047;29;20403;-73
2022/02/19 09:46:08;;;;;;;8.15;3.00;;;;;;;5.35;59.12;98396.91;4818342;29;20046;-74
2022/02/19 09:48:35;;;;;;;13.05;2.92;;;;;;;5.38;59.48;98408.84;4820267;29;20038;-74
2022/02/19 09:51:00;;;;;;;11.57;2.80;;;;;;;5.44;59.27;98400.81;4814937;29;20031;-74
2022/02/19 09:53:26;;;;;;;16.70;2.80;;;;;;;5.46;59.47;98401.38;4821443;29;20041;-74
2022/02/19 09:55:52;;;;;;;21.42;4.78;;;;;;;5.42;58.85;98402.88;4856387;23;20037;-73
2022/02/19 09:58:18;;;;;;;7.53;2.30;;;;;;;5.47;59.54;98424.19;4856657;29;20124;-73
2022/02/19 10:00:46;;;;;;;9.68;2.97;;;;;;;5.52;58.88;98420.88;4854229;29;20121;-73
2022/02/19 10:03:32;;;;;;;8.15;2.67;;;;;;;5.50;59.40;98436.97;4855204;29;20043;-73
2022/02/19 10:06:11;;;;;;;15.40;2.63;;;;;;;5.50;59.81;98444.91;4847655;29;20546;-73
2022/02/19 10:08:36;;;;;;;10.60;2.47;;;;;;;5.50;59.71;98430.88;4849040;29;20049;-73
2022/02/19 10:11:03;;;;;;;8.05;2.50;;;;;;;5.51;59.97;98441.22;4846768;29;20034;-73
2022/02/19 10:13:30;;;;;;;7.07;1.98;;;;;;;5.51;59.82;98435.13;4854358;29;20083;-73
2022/02/19 10:15:56;;;;;;;8.02;2.40;;;;;;;5.50;60.87;98438.81;4849709;29;20054;-73
2022/02/19 10:18:24;;;;;;;10.75;2.85;;;;;;;5.51;60.43;98449.16;4847073;29;20072;-72
2022/02/19 10:20:52;;;;;;;6.35;2.55;;;;;;;5.51;59.66;98456.28;4844820;29;20402;-73
2022/02/19 10:23:18;;;;;;;11.80;4.05;;;;;;;5.51;60.30;98456.28;4859732;29;20090;-72
2022/02/19 10:25:59;;;;;;;9.95;3.08;;;;;;;5.43;60.52;98454.78;4853025;29;20041;-74
2022/02/19 10:28:24;;;;;;;8.90;2.67;;;;;;;5.50;59.81;98473.22;4857194;29;20564;-73
2022/02/19 10:30:49;;;;;;;5.22;2.28;;;;;;;5.49;59.91;98484.81;4850965;29;20041;-73
2022/02/19 10:33:23;;;;;;;6.38;2.30;;;;;;;5.42;59.99;98484.13;4848063;29;20034;-73
2022/02/19 10:35:51;;;;;;;14.27;2.70;;;;;;;5.43;59.37;98475.13;4844441;29;20033;-73
2022/02/19 10:38:17;;;;;;;12.02;3.30;;;;;;;5.45;60.06;98475.72;4847914;29;20062;-72
2022/02/19 10:40:55;;;;;;;9.75;2.38;;;;;;;5.39;60.02;98468.69;4844028;29;20044;-73
2022/02/19 10:43:22;;;;;;;7.53;2.08;;;;;;;5.43;59.95;98507.72;4853936;29;20109;-73
2022/02/19 10:46:04;;;;;;;6.32;2.35;;;;;;;5.38;59.70;98501.47;4850595;29;20033;-72
2022/02/19 10:48:34;;;;;;;8.50;2.72;;;;;;;5.43;59.94;98496.31;4850240;29;20089;-73
2022/02/19 10:51:12;;;;;;;8.98;2.50;;;;;;;5.42;60.67;98495.50;4849099;29;20097;-72
2022/02/19 10:53:38;;;;;;;10.15;2.63;;;;;;;5.42;59.70;98495.50;4845568;29;20461;-74
2022/02/19 10:56:14;;;;;;;8.27;2.60;;;;;;;5.44;60.24;98498.72;4868638;29;20116;-73
2022/02/19 10:59:00;;;;;;;11.55;3.08;;;;;;;5.39;60.08;98508.38;4849699;29;20037;-73
2022/02/19 11:01:26;;;;;;;21.25;2.92;;;;;;;5.44;59.51;98511.97;4851449;29;20403;-73
2022/02/19 11:03:52;;;;;;;6.95;2.30;;;;;;;5.43;59.40;98493.66;4845088;29;20037;-73
2022/02/19 11:06:18;;;;;;;9.88;2.45;;;;;;;5.46;58.21;98517.84;4842818;29;20042;-73
2022/02/19 11:08:44;;;;;;;14.30;4.38;;;;;;;5.47;58.62;98497.47;4851053;29;20399;-73
2022/02/19 11:11:11;;;;;;;8.63;2.53;;;;;;;5.45;58.21;98492.41;4847693;29;20042;-73
2022/02/19 11:13:38;;;;;;;15.48;2.50;;;;;;;5.54;58.96;98501.66;4846663;29;20504;-74
2022/02/19 11:16:04;;;;;;;12.27;2.90;;;;;;;5.62;59.25;98509.28;4842509;29;20036;-74
2022/02/19 11:18:33;;;;;;;11.90;2.45;;;;;;;5.69;58.62;98511.84;4853271;29;20041;-75
2022/02/19 11:21:00;;;;;;;6.28;2.08;;;;;;;5.78;58.03;98492.75;4851994;29;20026;-75
2022/02/19 11:23:27;;;;;;;9.70;2.53;;;;;;;5.83;58.18;98494.72;4854204;29;20036;-75
2022/02/19 11:25:53;;;;;;;16.08;2.80;;;;;;;5.88;55.67;98497.53;4856890;29;20030;-74
2022/02/19 11:28:19;;;;;;;14.52;2.65;;;;;;;5.88;56.57;98493.03;4859113;29;20393;-75
2022/02/19 11:30:51;;;;;;;12.48;3.42;;;;;;;5.98;57.75;98490.63;4857692;29;20127;-77
2022/02/19 11:33:18;;;;;;;11.15;2.33;;;;;;;6.10;56.94;98495.16;4857398;29;20029;-75
2022/02/19 11:35:44;;;;;;;9.07;2.33;;;;;;;6.05;55.83;98479.94;4856463;29;20120;-76
2022/02/19 11:38:31;;;;;;;8.05;2.17;;;;;;;6.04;55.89;98497.69;4853015;29;20128;-75
2022/02/19 11:41:04;;;;;;;9.77;2.47;;;;;;;6.16;56.92;98508.28;4850864;29;20441;-74
2022/02/19 11:43:47;;;;;;;9.55;2.58;;;;;;;6.19;56.85;98497.25;4850041;29;20026;-75
2022/02/19 11:46:15;;;;;;;13.80;3.15;;;;;;;6.15;55.40;98498.75;4853396;29;20487;-74
2022/02/19 11:48:49;;;;;;;8.32;2.53;;;;;;;6.22;56.69;98514.53;4852293;29;20036;-74
2022/02/19 11:51:21;;;;;;;9.48;1.95;;;;;;;6.27;55.84;98504.84;4855401;29;20026;-74
2022/02/19 11:54:07;;;;;;;7.07;2.63;;;;;;;6.33;54.38;98508.44;4853302;29;20109;-75
2022/02/19 11:56:37;;;;;;;10.55;2.20;;;;;;;6.38;56.45;98497.94;4848774;29;20042;-75
2022/02/19 11:59:06;;;;;;;10.15;2.45;;;;;;;6.45;57.31;98503.94;4860109;29;20033;-73
2022/02/19 12:01:32;;;;;;;7.78;2.40;;;;;;;6.50;57.95;98512.84;4858719;29;20045;-75
2022/02/19 12:04:09;;;;;;;10.05;2.83;;;;;;;6.56;56.75;98503.94;4858291;29;20049;-74
2022/02/19 12:06:38;;;;;;;4.38;1.77;;;;;;;6.62;57.57;98503.00;4857837;29;20053;-74
2022/02/19 12:09:05;;;;;;;9.80;2.70;;;;;;;6.69;58.42;98503.72;4852147;29;20084;-74
2022/02/19 12:11:31;;;;;;;5.53;2.10;;;;;;;6.74;59.09;98511.78;4853208;29;20046;-75
2022/02/19 12:13:59;;;;;;;10.70;2.90;;;;;;;6.80;57.46;98494.94;4844646;29;20085;-75
2022/02/19 12:16:27;;;;;;;14.70;2.38;;;;;;;6.80;57.43;98486.16;4848254;29;20789;-74
2022/02/19 12:18:54;;;;;;;10.63;2.17;;;;;;;6.82;58.07;98492.03;4846449;29;20658;-75
2022/02/19 12:21:45;;;;;;;7.40;2.15;;;;;;;6.90;58.20;98489.06;4850532;29;20021;-76
2022/02/19 12:24:36;;;;;;;10.82;2.05;;;;;;;6.99;57.03;98490.28;4847252;29;20065;-75
2022/02/19 12:27:08;;;;;;;13.00;2.25;;;;;;;7.03;56.60;98472.06;4855347;29;20041;-75
2022/02/19 12:29:36;;;;;;;3.58;1.50;;;;;;;7.10;56.90;98480.72;4852979;29;20449;-75
2022/02/19 12:32:03;;;;;;;5.43;1.83;;;;;;;7.15;57.09;98473.63;4848380;29;20042;-75
2022/02/19 12:34:35;;;;;;;12.55;2.60;;;;;;;7.20;57.72;98483.56;4851657;29;20444;-75
2022/02/19 12:37:02;;;;;;;4.97;2.13;;;;;;;7.23;56.15;98483.09;4850447;29;20037;-75
2022/02/19 12:39:27;;;;;;;14.50;3.38;;;;;;;7.18;57.20;98465.22;4855736;29;20575;-75
2022/02/19 12:41:56;;;;;;;13.77;2.22;;;;;;;7.24;57.01;98466.91;4856653;29;20037;-75
2022/02/19 12:44:22;;;;;;;6.72;1.90;;;;;;;7.31;56.34;98475.56;4854532;29;20109;-75
2022/02/19 12:46:49;;;;;;;5.93;2.30;;;;;;;7.30;57.06;98471.28;4853580;29;20045;-74
2022/02/19 12:49:16;;;;;;;11.52;2.20;;;;;;;7.40;56.39;98487.38;4847460;29;20038;-76
2022/02/19 12:51:43;;;;;;;9.98;2.45;;;;;;;7.39;57.76;98493.75;4852973;29;20379;-75
2022/02/19 12:54:08;;;;;;;9.57;2.35;;;;;;;7.36;59.04;98482.81;4847992;29;20841;-76
2022/02/19 12:56:44;;;;;;;9.00;2.25;;;;;;;7.35;57.60;98484.66;4853847;29;20045;-75
2022/02/19 12:59:09;;;;;;;13.05;3.20;;;;;;;7.36;56.88;98482.81;4851782;29;20090;-76
2022/02/19 13:01:35;;;;;;;8.98;2.22;;;;;;;7.35;58.50;98489.16;4846025;29;20451;-75
2022/02/19 13:04:01;;;;;;;7.85;2.28;;;;;;;7.34;56.81;98493.66;4851011;29;20078;-75
2022/02/19 13:06:30;;;;;;;7.72;1.67;;;;;;;7.36;57.13;98502.19;4857745;29;20041;-75
2022/02/19 13:09:00;;;;;;;3.85;2.05;;;;;;;7.40;56.15;98486.59;4859847;29;20025;-76
2022/02/19 13:11:28;;;;;;;6.20;2.10;;;;;;;7.44;58.07;98493.88;4853503;29;20123;-76
2022/02/19 13:13:53;;;;;;;9.80;2.20;;;;;;;7.47;57.65;98495.22;4851537;29;20109;-76
2022/02/19 13:16:22;;;;;;;4.82;1.73;;;;;;;7.46;56.60;98494.44;4856715;29;20083;-76
2022/02/19 13:18:47;;;;;;;8.50;3.03;;;;;;;7.49;56.91;98495.81;4845752;29;20038;-75
2022/02/19 13:21:15;;;;;;;6.25;2.03;;;;;;;7.46;55.90;98486.47;4857542;29;20044;-76
2022/02/19 13:23:41;;;;;;;7.82;2.58;;;;;;;7.46;57.12;98486.47;4846143;29;20083;-76
2022/02/19 13:26:20;;;;;;;8.05;2.28;;;;;;;7.51;58.52;98496.38;4852735;29;20517;-75
2022/02/19 13:28:59;;;;;;;8.98;2.40;;;;;;;7.53;57.18;98510.22;4855135;29;20033;-76
2022/02/19 13:31:26;;;;;;;5.25;2.72;;;;;;;7.54;56.77;98483.41;4854381;29;20029;-75
2022/02/19 13:33:52;;;;;;;7.80;1.90;;;;;;;7.54;55.30;98477.28;4850554;29;20034;-76
2022/02/19 13:36:18;;;;;;;5.30;1.85;;;;;;;7.61;54.80;98477.16;4858372;29;20049;-75
2022/02/19 13:38:45;;;;;;;4.43;2.45;;;;;;;7.67;54.47;98474.34;4861941;29;20040;-75
2022/02/19 13:41:10;;;;;;;5.45;1.70;;;;;;;7.67;53.64;98469.03;4853633;29;20455;-75
2022/02/19 13:43:36;;;;;;;5.72;2.20;;;;;;;7.67;53.95;98463.72;4850002;29;20146;-75
2022/02/19 13:46:15;;;;;;;4.50;1.85;;;;;;;7.76;54.91;98477.41;4851274;29;20125;-76
2022/02/19 13:48:42;;;;;;;4.32;2.30;;;;;;;7.66;54.63;98470.09;4854377;29;20085;-76
2022/02/19 13:51:08;;;;;;;4.50;1.60;;;;;;;7.76;54.07;98474.75;4844279;29;20041;-75
2022/02/19 13:53:39;;;;;;;5.45;1.40;;;;;;;7.86;54.55;98482.94;4852291;29;20029;-75
2022/02/19 13:56:09;;;;;;;3.33;1.67;;;;;;;7.89;55.48;98491.22;4851632;29;20144;-75
2022/02/19 13:58:50;;;;;;;5.00;1.90;;;;;;;7.98;56.00;98515.53;4854760;29;20120;-75
2022/02/19 14:01:16;;;;;;;9.80;1.98;;;;;;;7.88;52.57;98515.38;4846517;29;20117;-74
2022/02/19 14:03:47;;;;;;;8.00;1.55;;;;;;;7.83;51.44;98512.63;4860014;29;20169;-75
2022/02/19 14:06:34;;;;;;;5.38;1.70;;;;;;;7.77;51.59;98508.25;4853097;29;20036;-75
2022/02/19 14:09:10;;;;;;;7.57;1.85;;;;;;;7.80;54.21;98513.13;4849017;29;20018;-75
2022/02/19 14:11:35;;;;;;;7.33;1.80;;;;;;;7.72;53.49;98506.31;4851655;29;20037;-76
2022/02/19 14:14:01;;;;;;;3.90;1.40;;;;;;;7.75;52.06;98515.66;4852181;29;20630;-75
2022/02/19 14:16:26;;;;;;;6.15;1.52;;;;;;;7.70;51.49;98512.91;4852342;29;20029;-75
2022/02/19 14:19:01;;;;;;;3.30;1.77;;;;;;;7.63;51.18;98506.94;4851990;29;20391;-76
2022/02/19 14:21:27;;;;;;;4.60;1.80;;;;;;;7.66;52.50;98501.16;4848024;29;20166;-75
2022/02/19 14:24:08;;;;;;;3.20;1.77;;;;;;;7.61;52.82;98493.09;4848134;29;20125;-75
2022/02/19 14:26:33;;;;;;;5.07;2.10;;;;;;;7.62;52.56;98492.06;4852862;29;20510;-75
2022/02/19 14:28:59;;;;;;;6.85;2.70;;;;;;;7.61;52.05;98493.09;4847232;29;20077;-75
2022/02/19 14:31:24;;;;;;;4.80;2.20;;;;;;;7.50;53.08;98482.28;4844150;29;20121;-75
2022/02/19 14:33:49;;;;;;;4.45;1.92;;;;;;;7.53;53.00;98486.31;4849808;29;20085;-74
2022/02/19 14:36:19;;;;;;;5.45;2.00;;;;;;;7.54;51.98;98487.91;4847828;29;20506;-75
2022/02/19 14:38:45;;;;;;;3.72;2.25;;;;;;;7.56;52.50;98505.22;4849127;29;20506;-75
2022/02/19 14:41:11;;;;;;;4.10;1.92;;;;;;;7.53;52.88;98512.88;4844826;29;20372;-75
2022/02/19 14:43:36;;;;;;;4.43;2.17;;;;;;;7.47;53.33;98517.25;4853766;29;20036;-76
2022/02/19 14:46:03;;;;;;;5.25;1.75;;;;;;;7.55;52.59;98511.59;4849073;29;20038;-75
2022/02/19 14:48:30;;;;;;;7.78;2.25;;;;;;;7.61;52.73;98519.63;4853471;29;20033;-75
2022/02/19 14:50:56;;;;;;;4.30;2.00;;;;;;;7.61;51.57;98509.03;4862122;29;20038;-75
2022/02/19 14:53:24;;;;;;;4.03;1.90;;;;;;;7.58;52.13;98519.06;4853144;29;20567;-76
2022/02/19 14:55:52;;;;;;;11.32;3.90;;;;;;;7.56;51.01;98513.19;4847968;29;20415;-75
2022/02/19 14:58:18;;;;;;;4.65;1.92;;;;;;;7.53;51.02;98508.34;4848963;29;20120;-75
2022/02/19 15:00:43;;;;;;;10.55;2.80;;;;;;;7.51;50.55;98499.81;4852222;29;20110;-75
2022/02/19 15:03:09;;;;;;;7.50;2.28;;;;;;;7.48;51.56;98486.22;4842923;29;20046;-75
2022/02/19 15:05:34;;;;;;;7.88;2.45;;;;;;;7.47;51.80;98482.75;4856250;29;20069;-76
2022/02/19 15:07:59;;;;;;;7.82;2.60;;;;;;;7.51;50.36;98483.88;4850531;29;20036;-75
2022/02/19 15:10:26;;;;;;;3.80;1.75;;;;;;;7.44;52.54;98474.47;4851428;29;20112;-75
2022/02/19 15:12:51;;;;;;;5.85;1.63;;;;;;;7.43;52.49;98471.00;4856865;29;20022;-75
2022/02/19 15:15:20;;;;;;;6.93;1.42;;;;;;;7.45;52.39;98468.91;4852768;29;20552;-76
2022/02/19 15:17:46;;;;;;;2.95;1.48;;;;;;;7.46;52.70;98467.06;4844728;29;20442;-75
2022/02/19 15:20:14;;;;;;;5.95;1.63;;;;;;;7.41;52.94;98462.47;4848323;29;20132;-75
2022/02/19 15:22:40;;;;;;;4.82;1.35;;;;;;;7.43;51.49;98463.03;4853822;29;20030;-76
2022/02/19 15:25:06;;;;;;;3.90;1.75;;;;;;;7.41;53.00;98470.44;4851274;29;20104;-76
2022/02/19 15:27:31;;;;;;;4.22;2.55;;;;;;;7.40;51.76;98460.06;4849087;29;20118;-75
2022/02/19 15:29:57;;;;;;;9.80;1.70;;;;;;;7.34;48.95;98472.41;4853049;29;20038;-75
2022/02/19 15:32:23;;;;;;;6.75;1.40;;;;;;;7.28;48.78;98475.19;4848371;29;20771;-74
2022/02/19 15:34:49;;;;;;;8.05;1.33;;;;;;;7.27;49.55;98478.91;4851842;29;20497;-75
2022/02/19 15:37:15;;;;;;;20.00;3.53;;;;;;;7.22;50.10;98463.69;4850020;29;20039;-75
2022/02/19 15:39:41;;;;;;;21.10;2.22;;;;;;;7.32;50.42;98477.16;4852336;29;20034;-75
2022/02/19 15:42:07;;;;;;;20.38;2.80;;;;;;;7.27;50.92;98460.34;4853263;29;20049;-75
2022/02/19 15:44:33;;;;;;;10.70;2.10;;;;;;;7.33;50.29;98470.81;4854264;29;20057;-74
2022/02/19 15:47:00;;;;;;;19.55;3.38;;;;;;;7.41;50.86;98457.16;4860610;29;20037;-75
2022/02/19 15:49:26;;;;;;;9.75;1.58;;;;;;;7.41;50.34;98457.16;4853163;29;20057;-74
2022/02/19 15:51:51;;;;;;;4.47;2.00;;;;;;;7.42;50.21;98468.59;4851612;29;20053;-74
2022/02/19 15:54:16;;;;;;;10.43;1.80;;;;;;;7.38;50.28;98468.25;4850368;29;20037;-75
2022/02/19 15:56:43;;;;;;;20.70;3.42;;;;;;;7.35;49.71;98458.09;4851213;29;20037;-73
2022/02/19 15:59:08;;;;;;;14.15;2.55;;;;;;;7.39;50.75;98464.56;4851881;29;20073;-75
2022/02/19 16:01:34;;;;;;;15.88;2.88;;;;;;;7.43;49.90;98473.66;4850168;29;20061;-75
2022/02/19 16:04:00;;;;;;;23.25;3.33;;;;;;;7.44;50.02;98463.84;4849249;29;20428;-75
2022/02/19 16:06:25;;;;;;;56.05;5.47;;;;;;;7.44;50.20;98472.63;4855150;29;20044;-75
2022/02/19 16:08:50;;;;;;;13.90;2.53;;;;;;;7.40;49.98;98463.50;4853539;29;20034;-75
2022/02/19 16:11:16;;;;;;;8.27;3.08;;;;;;;7.41;50.29;98467.78;4852335;29;20133;-75
2022/02/19 16:13:41;;;;;;;11.48;3.63;;;;;;;7.42;50.20;98473.91;4854439;29;20033;-76
2022/02/19 16:16:07;;;;;;;40.42;5.32;;;;;;;7.35;50.22;98460.75;4858068;29;20045;-74
2022/02/19 16:18:39;;;;;;;89.00;12.77;;;;;;;7.41;50.02;98459.00;4868030;29;20025;-77
2022/02/19 16:21:05;;;;;;;24.88;5.65;;;;;;;7.38;49.81;98475.41;4866164;29;20065;-74
2022/02/19 16:23:31;;;;;;;7.93;2.40;;;;;;;7.35;50.37;98457.28;4855787;29;20391;-73
2022/02/19 16:25:58;;;;;;;7.93;3.22;;;;;;;7.31;50.43;98451.66;4852490;29;20160;-73
2022/02/19 16:28:23;;;;;;;13.82;3.88;;;;;;;7.31;50.43;98443.72;4857159;29;20555;-74
2022/02/19 16:30:49;;;;;;;22.55;3.60;;;;;;;7.30;50.43;98450.03;4857573;29;20041;-75
2022/02/19 16:33:16;;;;;;;13.45;3.50;;;;;;;7.30;50.94;98439.44;4855227;29;20094;-74
2022/02/19 16:35:41;;;;;;;9.93;3.33;;;;;;;7.28;50.53;98438.84;4865206;29;20052;-74
2022/02/19 16:38:08;;;;;;;6.18;3.03;;;;;;;7.29;50.82;98442.31;4858899;29;20124;-74
2022/02/19 16:40:33;;;;;;;20.80;5.85;;;;;;;7.25;50.76;98439.31;4853962;29;20109;-73
2022/02/19 16:42:59;;;;;;;7.30;5.03;;;;;;;7.22;50.73;98431.03;4856496;29;20136;-73
2022/02/19 16:45:24;;;;;;;7.97;4.60;;;;;;;7.14;50.22;98426.91;4857481;29;20045;-74
2022/02/19 16:47:49;;;;;;;5.28;3.20;;;;;;;7.10;51.11;98433.72;4852992;29;20036;-74
2022/02/19 16:50:15;;;;;;;27.85;5.38;;;;;;;7.11;50.98;98435.34;4850074;29;20034;-74
2022/02/19 16:52:42;;;;;;;14.05;4.55;;;;;;;7.12;51.29;98430.84;4847796;29;20057;-75
2022/02/19 16:55:09;;;;;;;15.48;4.00;;;;;;;7.12;51.09;98428.97;4859455;29;20041;-74
2022/02/19 16:57:35;;;;;;;31.58;7.32;;;;;;;7.11;51.47;98423.91;4848449;29;20517;-75
2022/02/19 17:00:00;;;;;;;12.55;3.80;;;;;;;7.13;50.99;98422.66;4852569;29;20073;-75
2022/02/19 17:02:25;;;;;;;14.40;3.55;;;;;;;7.12;52.12;98421.03;4856072;29;20034;-76
2022/02/19 17:04:51;;;;;;;14.27;3.95;;;;;;;7.05;52.12;98417.72;4846826;29;20056;-75
2022/02/19 17:07:16;;;;;;;12.93;3.00;;;;;;;7.02;52.28;98428.00;4848329;29;20452;-74
2022/02/19 17:09:42;;;;;;;10.82;3.15;;;;;;;6.98;52.99;98435.63;4847172;29;20056;-75
2022/02/19 17:12:07;;;;;;;7.80;2.78;;;;;;;6.95;53.74;98437.91;4852303;29;20049;-76
2022/02/19 17:14:32;;;;;;;5.50;2.70;;;;;;;6.90;53.56;98441.31;4853487;29;20073;-75
2022/02/19 17:16:58;;;;;;;5.53;2.45;;;;;;;6.81;54.75;98430.22;4859501;29;20128;-76
2022/02/19 17:19:24;;;;;;;3.53;1.92;;;;;;;6.81;55.32;98450.66;4837975;29;20038;-76
2022/02/19 17:22:19;;;;;;;6.32;1.88;;;;;;;6.77;54.46;98450.31;4849571;29;20761;-75
2022/02/19 17:24:44;;;;;;;6.20;2.13;;;;;;;6.73;55.51;98449.16;4848654;29;20509;-75
2022/02/19 17:27:09;;;;;;;4.05;1.88;;;;;;;6.68;55.87;98440.31;4846463;29;20313;-76
2022/02/19 17:29:35;;;;;;;5.47;1.92;;;;;;;6.61;56.65;98440.44;4852165;29;20034;-75
2022/02/19 17:32:02;;;;;;;6.70;2.33;;;;;;;6.63;57.02;98442.84;4858562;29;20136;-75
2022/02/19 17:34:28;;;;;;;4.82;1.83;;;;;;;6.59;57.48;98439.06;4845004;29;20042;-75
2022/02/19 17:36:53;;;;;;;5.40;2.20;;;;;;;6.55;57.70;98440.56;4846686;29;20029;-75
2022/02/19 17:39:19;;;;;;;11.68;2.03;;;;;;;6.54;57.57;98444.22;4850045;29;20038;-75
2022/02/19 17:41:45;;;;;;;5.50;1.95;;;;;;;6.49;57.82;98439.63;4845941;29;20065;-75
2022/02/19 17:44:12;;;;;;;6.25;2.03;;;;;;;6.52;59.20;98451.63;4850405;29;20487;-75
2022/02/19 17:46:38;;;;;;;9.23;1.90;;;;;;;6.48;59.35;98445.97;4850215;29;20030;-75
2022/02/19 17:49:04;;;;;;;7.70;1.92;;;;;;;6.48;59.91;98434.56;4857261;29;20026;-75
2022/02/19 17:51:29;;;;;;;4.43;1.80;;;;;;;6.47;59.55;98451.50;4846204;29;20048;-75
2022/02/19 17:53:54;;;;;;;5.95;1.77;;;;;;;6.44;59.42;98446.66;4854243;29;20039;-75
2022/02/19 17:56:20;;;;;;;8.48;2.20;;;;;;;6.43;59.73;98437.09;4852729;29;20045;-75
2022/02/19 17:58:46;;;;;;;4.55;2.25;;;;;;;6.42;60.27;98440.81;4850837;29;20029;-75
2022/02/19 18:01:11;;;;;;;2.75;1.83;;;;;;;6.41;60.65;98436.53;4852069;29;20038;-75
2022/02/19 18:03:39;;;;;;;11.35;2.58;;;;;;;6.36;60.72;98423.97;4852972;29;20094;-75
2022/02/19 18:06:04;;;;;;;7.40;1.95;;;;;;;6.39;60.98;98436.75;4849474;29;20498;-76
2022/02/19 18:08:30;;;;;;;9.32;2.75;;;;;;;6.30;61.11;98424.91;4850065;29;20061;-75
2022/02/19 18:10:55;;;;;;;10.88;2.40;;;;;;;6.32;61.48;98414.88;4852792;29;20115;-75
2022/02/19 18:13:20;;;;;;;5.63;1.92;;;;;;;6.34;60.98;98414.63;4851908;29;20033;-75
2022/02/19 18:15:46;;;;;;;4.55;1.92;;;;;;;6.25;61.61;98397.47;4846242;29;20483;-76
2022/02/19 18:18:11;;;;;;;6.13;2.10;;;;;;;6.30;61.29;98411.63;4853511;29;20449;-75
2022/02/19 18:20:36;;;;;;;8.07;2.63;;;;;;;6.33;61.86;98407.72;4851837;29;20049;-74
2022/02/19 18:23:01;;;;;;;6.40;2.40;;;;;;;6.30;62.20;98398.38;4854826;29;20055;-75
2022/02/19 18:25:27;;;;;;;7.50;1.75;;;;;;;6.24;61.96;98398.50;4849409;29;20045;-75
2022/02/19 18:27:52;;;;;;;3.83;2.42;;;;;;;6.27;61.75;98396.19;4853650;29;20029;-75
2022/02/19 18:30:18;;;;;;;5.35;2.00;;;;;;;6.26;62.28;98391.13;4855418;29;20081;-75
2022/02/19 18:32:44;;;;;;;12.75;2.33;;;;;;;6.22;61.59;98382.03;4854764;29;20034;-75
2022/02/19 18:35:10;;;;;;;8.55;2.38;;;;;;;6.21;62.15;98375.94;4850599;29;20048;-74
2022/02/19 18:37:35;;;;;;;9.35;2.38;;;;;;;6.22;62.57;98380.19;4869600;29;20093;-76
2022/02/19 18:40:03;;;;;;;7.40;2.13;;;;;;;6.21;62.29;98380.41;4854787;29;20112;-76
2022/02/19 18:42:29;;;;;;;5.45;2.30;;;;;;;6.10;62.49;98363.50;4845097;29;20037;-75
2022/02/19 18:44:54;;;;;;;6.18;2.28;;;;;;;6.20;62.42;98374.34;4848032;29;20037;-75
2022/02/19 18:47:19;;;;;;;10.45;3.88;;;;;;;6.20;61.74;98378.81;4848878;29;21931;-75
2022/02/19 18:49:46;;;;;;;13.60;3.72;;;;;;;6.13;61.71;98362.22;4872467;29;20055;-75
2022/02/19 18:52:12;;;;;;;7.53;2.22;;;;;;;6.16;61.57;98377.69;4866333;29;20059;-74
2022/02/19 18:54:37;;;;;;;5.47;2.05;;;;;;;6.18;61.82;98375.59;4851053;29;20069;-76
2022/02/19 18:57:03;;;;;;;4.35;1.42;;;;;;;6.15;62.52;98374.22;4855816;29;20045;-76
2022/02/19 18:59:29;;;;;;;8.52;2.55;;;;;;;6.10;62.32;98371.44;4847370;29;20062;-76
2022/02/19 19:01:54;;;;;;;9.15;2.47;;;;;;;6.16;62.21;98372.38;4844255;29;20467;-75
2022/02/19 19:04:20;;;;;;;12.52;2.95;;;;;;;6.13;62.42;98367.53;4851487;29;20037;-75
2022/02/19 19:06:46;;;;;;;4.40;2.00;;;;;;;6.09;62.09;98359.25;4850924;29;20041;-75
2022/02/19 19:09:11;;;;;;;11.63;2.10;;;;;;;6.12;62.52;98356.13;4859591;29;20125;-76
2022/02/19 19:11:37;;;;;;;6.80;2.45;;;;;;;6.05;62.52;98350.13;4856727;29;20391;-75
2022/02/19 19:14:03;;;;;;;4.00;1.50;;;;;;;6.09;62.04;98345.19;4857171;29;20034;-76
2022/02/19 19:16:28;;;;;;;5.38;1.83;;;;;;;6.08;61.42;98336.44;4830381;29;20475;-75
2022/02/19 19:18:53;;;;;;;6.63;1.60;;;;;;;6.07;62.04;98334.03;4867235;29;20403;-76
2022/02/19 19:21:19;;;;;;;6.53;1.60;;;;;;;6.05;62.09;98331.59;4856062;29;20038;-75
2022/02/19 19:23:45;;;;;;;4.13;1.75;;;;;;;6.07;61.96;98327.66;4849127;29;20125;-78
2022/02/19 19:26:10;;;;;;;10.90;2.58;;;;;;;6.05;62.13;98319.16;4860462;29;20148;-75
2022/02/19 19:28:36;;;;;;;8.55;1.98;;;;;;;6.07;61.27;98314.44;4854445;29;20085;-75
2022/02/19 19:31:02;;;;;;;8.07;2.00;;;;;;;6.00;60.59;98319.06;4865646;29;20033;-75
2022/02/19 19:33:29;;;;;;;9.77;2.22;;;;;;;5.90;60.82;98294.16;4851678;29;20043;-76
2022/02/19 19:35:56;;;;;;;12.13;1.90;;;;;;;5.96;60.88;98312.59;4848652;29;20053;-76
2022/02/19 19:38:22;;;;;;;5.20;1.42;;;;;;;6.01;61.24;98302.13;4852934;29;20121;-75
2022/02/19 19:40:48;;;;;;;6.70;1.77;;;;;;;6.05;61.22;98313.03;4856543;29;20041;-76
2022/02/19 19:43:32;;;;;;;4.82;1.67;;;;;;;6.03;60.88;98309.81;4845666;29;20108;-75
2022/02/19 19:45:57;;;;;;;7.85;1.77;;;;;;;6.04;61.08;98296.38;4859371;29;20045;-76
2022/02/19 19:48:23;;;;;;;5.57;1.85;;;;;;;6.05;61.04;98291.84;4861134;29;20525;-76
2022/02/19 19:50:48;;;;;;;6.53;1.80;;;;;;;6.07;61.42;98294.28;4855444;29;20034;-75
2022/02/19 19:53:13;;;;;;;8.30;1.85;;;;;;;6.03;61.27;98283.34;4864460;29;20026;-76
2022/02/19 19:55:42;;;;;;;5.07;2.50;;;;;;;6.07;60.74;98295.88;4847614;29;20033;-76
2022/02/19 19:58:08;;;;;;;3.88;2.17;;;;;;;6.04;61.44;98280.47;4850753;29;20038;-75
2022/02/19 20:00:34;;;;;;;4.43;1.60;;;;;;;6.04;61.11;98275.16;4849937;29;20097;-76
2022/02/19 20:02:59;;;;;;;4.97;1.73;;;;;;;6.07;61.29;98270.44;4859126;29;20026;-76
2022/02/19 20:05:24;;;;;;;5.32;1.98;;;;;;;6.07;61.36;98258.78;4860202;29;20034;-75
2022/02/19 20:07:50;;;;;;;7.55;1.55;;;;;;;5.99;61.43;98247.75;4850226;29;20134;-75
2022/02/19 20:10:15;;;;;;;3.95;1.90;;;;;;;6.04;61.22;98242.56;4844410;29;20044;-75
2022/02/19 20:12:42;;;;;;;8.73;1.65;;;;;;;6.01;61.44;98230.59;4851415;29;20033;-76
2022/02/19 20:15:08;;;;;;;8.48;1.67;;;;;;;6.04;61.37;98231.97;4868194;29;20045;-74
2022/02/19 20:17:33;;;;;;;5.05;1.65;;;;;;;6.05;61.25;98236.22;4859176;29;20037;-75
2022/02/19 20:19:59;;;;;;;6.57;1.83;;;;;;;6.05;61.03;98252.13;4845387;29;20411;-75